sensor_id;sensor_type;location;lat;lon;timestamp;P1;durP1;ratioP1;P2;durP2;ratioP2
22937;SDS011;11634;42.734;23.298;2023-03-23T00:00:15;59.50;;;43.15;;
22937;SDS011;11634;42.734;23.298;2023-03-23T00:02:41;65.95;;;44.33;;
22937;SDS011;11634;42.734;23.298;2023-03-23T00:05:06;62.97;;;44.22;;
22937;SDS011;11634;42.734;23.298;2023-03-23T00:07:33;59.00;;;43.22;;
22937;SDS011;11634;42.734;23.298;2023-03-23T00:09:58;55.47;;;40.65;;
22937;SDS011;11634;42.734;23.298;2023-03-23T00:12:28;55.53;;;40.35;;
22937;SDS011;11634;42.734;23.298;2023-03-23T00:15:01;56.55;;;38.58;;
22937;SDS011;11634;42.734;23.298;2023-03-23T00:17:27;54.25;;;40.42;;
22937;SDS011;11634;42.734;23.298;2023-03-23T00:19:53;55.70;;;40.58;;
22937;SDS011;11634;42.734;23.298;2023-03-23T00:22:19;57.72;;;42.67;;
22937;SDS011;11634;42.734;23.298;2023-03-23T00:24:46;58.03;;;40.58;;
22937;SDS011;11634;42.734;23.298;2023-03-23T00:27:12;62.28;;;44.22;;
22937;SDS011;11634;42.734;23.298;2023-03-23T00:29:41;57.70;;;42.72;;
22937;SDS011;11634;42.734;23.298;2023-03-23T00:32:07;59.50;;;42.53;;
22937;SDS011;11634;42.734;23.298;2023-03-23T00:34:38;56.65;;;41.55;;
22937;SDS011;11634;42.734;23.298;2023-03-23T00:37:03;57.08;;;40.92;;
22937;SDS011;11634;42.734;23.298;2023-03-23T00:39:29;59.13;;;39.67;;
22937;SDS011;11634;42.734;23.298;2023-03-23T00:41:54;46.92;;;34.88;;
22937;SDS011;11634;42.734;23.298;2023-03-23T00:44:29;49.83;;;34.53;;
22937;SDS011;11634;42.734;23.298;2023-03-23T00:46:56;43.95;;;32.40;;
22937;SDS011;11634;42.734;23.298;2023-03-23T00:49:22;42.63;;;30.10;;
22937;SDS011;11634;42.734;23.298;2023-03-23T00:51:55;38.23;;;28.60;;
22937;SDS011;11634;42.734;23.298;2023-03-23T00:54:22;42.92;;;31.02;;
22937;SDS011;11634;42.734;23.298;2023-03-23T00:56:48;37.78;;;28.27;;
22937;SDS011;11634;42.734;23.298;2023-03-23T00:59:14;37.55;;;27.42;;
22937;SDS011;11634;42.734;23.298;2023-03-23T01:01:40;37.78;;;28.35;;
22937;SDS011;11634;42.734;23.298;2023-03-23T01:04:06;40.92;;;30.30;;
22937;SDS011;11634;42.734;23.298;2023-03-23T01:06:32;38.25;;;29.33;;
22937;SDS011;11634;42.734;23.298;2023-03-23T01:09:02;40.78;;;28.88;;
22937;SDS011;11634;42.734;23.298;2023-03-23T01:11:28;41.95;;;30.08;;
22937;SDS011;11634;42.734;23.298;2023-03-23T01:13:53;42.88;;;31.70;;
22937;SDS011;11634;42.734;23.298;2023-03-23T01:16:19;39.92;;;29.55;;
22937;SDS011;11634;42.734;23.298;2023-03-23T01:18:45;40.75;;;29.48;;
22937;SDS011;11634;42.734;23.298;2023-03-23T01:21:11;41.85;;;31.92;;
22937;SDS011;11634;42.734;23.298;2023-03-23T01:23:37;52.55;;;35.15;;
22937;SDS011;11634;42.734;23.298;2023-03-23T01:26:07;46.45;;;33.90;;
22937;SDS011;11634;42.734;23.298;2023-03-23T01:28:33;44.08;;;33.47;;
22937;SDS011;11634;42.734;23.298;2023-03-23T01:31:41;49.00;;;34.33;;
22937;SDS011;11634;42.734;23.298;2023-03-23T01:33:48;56.75;;;36.40;;
22937;SDS011;11634;42.734;23.298;2023-03-23T01:36:17;51.33;;;35.53;;
22937;SDS011;11634;42.734;23.298;2023-03-23T01:38:44;59.72;;;38.60;;
22937;SDS011;11634;42.734;23.298;2023-03-23T01:41:10;56.95;;;40.60;;
22937;SDS011;11634;42.734;23.298;2023-03-23T01:43:36;59.83;;;42.67;;
22937;SDS011;11634;42.734;23.298;2023-03-23T01:46:01;59.47;;;41.35;;
22937;SDS011;11634;42.734;23.298;2023-03-23T01:48:34;59.20;;;41.90;;
22937;SDS011;11634;42.734;23.298;2023-03-23T01:51:04;57.45;;;40.90;;
22937;SDS011;11634;42.734;23.298;2023-03-23T01:53:34;56.42;;;38.63;;
22937;SDS011;11634;42.734;23.298;2023-03-23T01:56:01;75.13;;;51.05;;
22937;SDS011;11634;42.734;23.298;2023-03-23T01:58:29;61.00;;;42.30;;
22937;SDS011;11634;42.734;23.298;2023-03-23T02:00:57;52.10;;;38.33;;
22937;SDS011;11634;42.734;23.298;2023-03-23T02:03:27;56.15;;;37.97;;
22937;SDS011;11634;42.734;23.298;2023-03-23T02:05:54;51.40;;;36.10;;
22937;SDS011;11634;42.734;23.298;2023-03-23T02:08:31;49.53;;;35.13;;
22937;SDS011;11634;42.734;23.298;2023-03-23T02:11:01;51.80;;;34.75;;
22937;SDS011;11634;42.734;23.298;2023-03-23T02:13:27;50.42;;;34.72;;
22937;SDS011;11634;42.734;23.298;2023-03-23T02:18:40;47.72;;;34.67;;
22937;SDS011;11634;42.734;23.298;2023-03-23T02:34:32;43.70;;;31.58;;
22937;SDS011;11634;42.734;23.298;2023-03-23T02:37:00;38.05;;;27.25;;
22937;SDS011;11634;42.734;23.298;2023-03-23T02:39:30;29.60;;;22.42;;
22937;SDS011;11634;42.734;23.298;2023-03-23T02:41:59;38.60;;;29.83;;
22937;SDS011;11634;42.734;23.298;2023-03-23T02:44:26;37.22;;;26.58;;
22937;SDS011;11634;42.734;23.298;2023-03-23T02:46:56;26.77;;;21.05;;
22937;SDS011;11634;42.734;23.298;2023-03-23T02:49:22;38.47;;;27.17;;
22937;SDS011;11634;42.734;23.298;2023-03-23T02:51:49;39.85;;;29.60;;
22937;SDS011;11634;42.734;23.298;2023-03-23T02:54:15;37.60;;;27.52;;
22937;SDS011;11634;42.734;23.298;2023-03-23T02:56:42;34.55;;;23.65;;
22937;SDS011;11634;42.734;23.298;2023-03-23T02:59:16;35.15;;;24.65;;
22937;SDS011;11634;42.734;23.298;2023-03-23T03:04:09;32.47;;;23.80;;
22937;SDS011;11634;42.734;23.298;2023-03-23T03:09:15;32.40;;;23.13;;
22937;SDS011;11634;42.734;23.298;2023-03-23T03:11:44;37.55;;;27.13;;
22937;SDS011;11634;42.734;23.298;2023-03-23T03:14:13;36.85;;;28.15;;
22937;SDS011;11634;42.734;23.298;2023-03-23T03:16:49;36.50;;;27.08;;
22937;SDS011;11634;42.734;23.298;2023-03-23T03:19:29;35.90;;;27.00;;
22937;SDS011;11634;42.734;23.298;2023-03-23T03:21:56;37.53;;;26.83;;
22937;SDS011;11634;42.734;23.298;2023-03-23T03:24:33;41.27;;;27.87;;
22937;SDS011;11634;42.734;23.298;2023-03-23T03:26:59;37.10;;;27.63;;
22937;SDS011;11634;42.734;23.298;2023-03-23T03:29:49;45.30;;;31.03;;
22937;SDS011;11634;42.734;23.298;2023-03-23T03:32:18;44.17;;;29.73;;
22937;SDS011;11634;42.734;23.298;2023-03-23T03:34:44;41.80;;;28.90;;
22937;SDS011;11634;42.734;23.298;2023-03-23T03:37:10;39.13;;;29.13;;
22937;SDS011;11634;42.734;23.298;2023-03-23T03:39:38;44.67;;;30.50;;
22937;SDS011;11634;42.734;23.298;2023-03-23T03:42:04;42.73;;;29.53;;
22937;SDS011;11634;42.734;23.298;2023-03-23T03:44:30;42.47;;;29.90;;
22937;SDS011;11634;42.734;23.298;2023-03-23T03:46:56;42.40;;;28.50;;
22937;SDS011;11634;42.734;23.298;2023-03-23T03:49:21;42.73;;;31.40;;
22937;SDS011;11634;42.734;23.298;2023-03-23T03:51:48;44.80;;;30.93;;
22937;SDS011;11634;42.734;23.298;2023-03-23T03:54:20;42.80;;;30.50;;
22937;SDS011;11634;42.734;23.298;2023-03-23T03:56:45;44.70;;;30.57;;
22937;SDS011;11634;42.734;23.298;2023-03-23T03:59:34;48.45;;;30.40;;
22937;SDS011;11634;42.734;23.298;2023-03-23T04:02:18;43.87;;;31.07;;
22937;SDS011;11634;42.734;23.298;2023-03-23T04:04:47;41.77;;;29.60;;
22937;SDS011;11634;42.734;23.298;2023-03-23T04:07:13;41.20;;;29.20;;
22937;SDS011;11634;42.734;23.298;2023-03-23T04:09:39;48.87;;;32.23;;
22937;SDS011;11634;42.734;23.298;2023-03-23T04:12:05;46.70;;;33.53;;
22937;SDS011;11634;42.734;23.298;2023-03-23T04:15:09;45.90;;;31.00;;
22937;SDS011;11634;42.734;23.298;2023-03-23T04:17:35;48.40;;;32.33;;
22937;SDS011;11634;42.734;23.298;2023-03-23T04:20:02;49.00;;;31.83;;
22937;SDS011;11634;42.734;23.298;2023-03-23T04:22:33;42.37;;;30.60;;
22937;SDS011;11634;42.734;23.298;2023-03-23T04:25:00;45.87;;;31.10;;
22937;SDS011;11634;42.734;23.298;2023-03-23T04:27:29;46.97;;;30.67;;
22937;SDS011;11634;42.734;23.298;2023-03-23T04:29:57;43.85;;;30.08;;
22937;SDS011;11634;42.734;23.298;2023-03-23T04:32:42;44.70;;;31.10;;
22937;SDS011;11634;42.734;23.298;2023-03-23T04:35:10;50.47;;;32.00;;
22937;SDS011;11634;42.734;23.298;2023-03-23T04:37:41;45.07;;;32.60;;
22937;SDS011;11634;42.734;23.298;2023-03-23T04:40:10;46.58;;;31.27;;
22937;SDS011;11634;42.734;23.298;2023-03-23T04:42:39;47.40;;;33.13;;
22937;SDS011;11634;42.734;23.298;2023-03-23T04:45:31;47.90;;;32.67;;
22937;SDS011;11634;42.734;23.298;2023-03-23T04:47:59;51.42;;;33.15;;
22937;SDS011;11634;42.734;23.298;2023-03-23T04:50:35;47.70;;;33.10;;
22937;SDS011;11634;42.734;23.298;2023-03-23T04:53:12;49.03;;;33.50;;
22937;SDS011;11634;42.734;23.298;2023-03-23T04:55:43;49.07;;;33.03;;
22937;SDS011;11634;42.734;23.298;2023-03-23T04:58:12;59.10;;;36.73;;
22937;SDS011;11634;42.734;23.298;2023-03-23T05:00:55;51.57;;;34.20;;
22937;SDS011;11634;42.734;23.298;2023-03-23T05:03:22;53.00;;;35.33;;
22937;SDS011;11634;42.734;23.298;2023-03-23T05:05:50;54.93;;;36.13;;
22937;SDS011;11634;42.734;23.298;2023-03-23T05:08:19;50.83;;;35.40;;
22937;SDS011;11634;42.734;23.298;2023-03-23T05:10:55;54.10;;;33.93;;
22937;SDS011;11634;42.734;23.298;2023-03-23T05:13:24;56.20;;;35.83;;
22937;SDS011;11634;42.734;23.298;2023-03-23T05:15:53;54.97;;;35.13;;
22937;SDS011;11634;42.734;23.298;2023-03-23T05:18:19;58.90;;;37.93;;
22937;SDS011;11634;42.734;23.298;2023-03-23T05:20:45;54.10;;;35.67;;
22937;SDS011;11634;42.734;23.298;2023-03-23T05:23:15;68.53;;;43.77;;
22937;SDS011;11634;42.734;23.298;2023-03-23T05:25:43;50.03;;;34.13;;
22937;SDS011;11634;42.734;23.298;2023-03-23T05:28:18;52.07;;;34.80;;
22937;SDS011;11634;42.734;23.298;2023-03-23T05:30:50;49.93;;;34.93;;
22937;SDS011;11634;42.734;23.298;2023-03-23T05:33:16;55.63;;;35.95;;
22937;SDS011;11634;42.734;23.298;2023-03-23T05:35:49;55.10;;;35.17;;
22937;SDS011;11634;42.734;23.298;2023-03-23T05:38:18;59.13;;;40.23;;
22937;SDS011;11634;42.734;23.298;2023-03-23T05:40:46;57.80;;;36.97;;
22937;SDS011;11634;42.734;23.298;2023-03-23T05:43:16;55.27;;;35.30;;
22937;SDS011;11634;42.734;23.298;2023-03-23T05:46:11;56.90;;;34.97;;
22937;SDS011;11634;42.734;23.298;2023-03-23T05:48:38;62.10;;;34.55;;
22937;SDS011;11634;42.734;23.298;2023-03-23T05:51:08;56.00;;;30.55;;
22937;SDS011;11634;42.734;23.298;2023-03-23T05:53:38;63.35;;;32.88;;
22937;SDS011;11634;42.734;23.298;2023-03-23T05:56:04;53.60;;;29.57;;
22937;SDS011;11634;42.734;23.298;2023-03-23T05:58:48;54.30;;;31.43;;
22937;SDS011;11634;42.734;23.298;2023-03-23T06:01:14;49.97;;;28.92;;
22937;SDS011;11634;42.734;23.298;2023-03-23T06:03:41;59.10;;;33.92;;
22937;SDS011;11634;42.734;23.298;2023-03-23T06:06:15;57.22;;;33.38;;
22937;SDS011;11634;42.734;23.298;2023-03-23T06:08:51;63.25;;;35.25;;
22937;SDS011;11634;42.734;23.298;2023-03-23T06:11:24;56.55;;;35.63;;
22937;SDS011;11634;42.734;23.298;2023-03-23T06:14:08;57.80;;;35.88;;
22937;SDS011;11634;42.734;23.298;2023-03-23T06:16:34;57.45;;;34.50;;
22937;SDS011;11634;42.734;23.298;2023-03-23T06:19:05;50.85;;;30.77;;
22937;SDS011;11634;42.734;23.298;2023-03-23T06:21:33;47.85;;;32.47;;
22937;SDS011;11634;42.734;23.298;2023-03-23T06:24:21;56.53;;;35.70;;
22937;SDS011;11634;42.734;23.298;2023-03-23T06:26:47;45.33;;;31.73;;
22937;SDS011;11634;42.734;23.298;2023-03-23T06:29:17;50.85;;;32.58;;
22937;SDS011;11634;42.734;23.298;2023-03-23T06:31:47;46.58;;;30.77;;
22937;SDS011;11634;42.734;23.298;2023-03-23T06:34:20;38.53;;;28.17;;
22937;SDS011;11634;42.734;23.298;2023-03-23T06:36:46;45.33;;;27.60;;
22937;SDS011;11634;42.734;23.298;2023-03-23T06:39:18;40.65;;;27.83;;
22937;SDS011;11634;42.734;23.298;2023-03-23T06:42:04;35.75;;;26.83;;
22937;SDS011;11634;42.734;23.298;2023-03-23T06:44:34;35.30;;;26.40;;
22937;SDS011;11634;42.734;23.298;2023-03-23T06:47:00;38.33;;;26.27;;
22937;SDS011;11634;42.734;23.298;2023-03-23T06:49:34;38.03;;;26.73;;
22937;SDS011;11634;42.734;23.298;2023-03-23T06:52:13;33.47;;;25.33;;
22937;SDS011;11634;42.734;23.298;2023-03-23T06:54:39;35.38;;;25.67;;
22937;SDS011;11634;42.734;23.298;2023-03-23T06:57:05;31.88;;;25.20;;
22937;SDS011;11634;42.734;23.298;2023-03-23T06:59:31;35.17;;;26.48;;
22937;SDS011;11634;42.734;23.298;2023-03-23T07:01:57;36.85;;;26.33;;
22937;SDS011;11634;42.734;23.298;2023-03-23T07:04:25;37.83;;;26.30;;
22937;SDS011;11634;42.734;23.298;2023-03-23T07:07:02;44.50;;;27.70;;
22937;SDS011;11634;42.734;23.298;2023-03-23T07:09:31;42.25;;;27.88;;
22937;SDS011;11634;42.734;23.298;2023-03-23T07:11:57;44.42;;;28.30;;
22937;SDS011;11634;42.734;23.298;2023-03-23T07:14:38;40.00;;;27.98;;
22937;SDS011;11634;42.734;23.298;2023-03-23T07:17:07;40.22;;;26.13;;
22937;SDS011;11634;42.734;23.298;2023-03-23T07:19:37;39.38;;;27.10;;
22937;SDS011;11634;42.734;23.298;2023-03-23T07:22:04;36.17;;;25.60;;
22937;SDS011;11634;42.734;23.298;2023-03-23T07:27:19;40.03;;;23.60;;
22937;SDS011;11634;42.734;23.298;2023-03-23T07:29:45;36.97;;;24.25;;
22937;SDS011;11634;42.734;23.298;2023-03-23T07:32:17;31.35;;;24.48;;
22937;SDS011;11634;42.734;23.298;2023-03-23T07:34:44;35.65;;;24.63;;
22937;SDS011;11634;42.734;23.298;2023-03-23T07:37:20;28.35;;;22.55;;
22937;SDS011;11634;42.734;23.298;2023-03-23T07:39:48;27.23;;;22.38;;
22937;SDS011;11634;42.734;23.298;2023-03-23T07:42:14;30.27;;;22.80;;
22937;SDS011;11634;42.734;23.298;2023-03-23T07:44:52;29.55;;;22.80;;
22937;SDS011;11634;42.734;23.298;2023-03-23T07:47:17;29.33;;;22.65;;
22937;SDS011;11634;42.734;23.298;2023-03-23T07:49:46;31.88;;;21.65;;
22937;SDS011;11634;42.734;23.298;2023-03-23T07:52:34;31.83;;;21.50;;
22937;SDS011;11634;42.734;23.298;2023-03-23T07:55:00;30.92;;;21.92;;
22937;SDS011;11634;42.734;23.298;2023-03-23T07:57:53;31.15;;;21.83;;
22937;SDS011;11634;42.734;23.298;2023-03-23T08:00:19;24.02;;;19.25;;
22937;SDS011;11634;42.734;23.298;2023-03-23T08:02:46;33.28;;;21.38;;
22937;SDS011;11634;42.734;23.298;2023-03-23T08:05:39;27.73;;;21.73;;
22937;SDS011;11634;42.734;23.298;2023-03-23T08:08:29;29.90;;;21.00;;
22937;SDS011;11634;42.734;23.298;2023-03-23T08:11:30;22.08;;;18.75;;
22937;SDS011;11634;42.734;23.298;2023-03-23T08:14:21;22.05;;;19.63;;
22937;SDS011;11634;42.734;23.298;2023-03-23T08:16:57;28.02;;;19.27;;
22937;SDS011;11634;42.734;23.298;2023-03-23T08:19:44;26.92;;;20.60;;
22937;SDS011;11634;42.734;23.298;2023-03-23T08:22:29;18.40;;;15.02;;
22937;SDS011;11634;42.734;23.298;2023-03-23T08:25:29;21.38;;;17.13;;
22937;SDS011;11634;42.734;23.298;2023-03-23T08:28:23;33.22;;;16.50;;
22937;SDS011;11634;42.734;23.298;2023-03-23T08:31:10;19.10;;;16.13;;
22937;SDS011;11634;42.734;23.298;2023-03-23T08:34:04;18.65;;;14.93;;
22937;SDS011;11634;42.734;23.298;2023-03-23T08:36:41;19.88;;;15.93;;
22937;SDS011;11634;42.734;23.298;2023-03-23T08:39:44;21.30;;;16.27;;
22937;SDS011;11634;42.734;23.298;2023-03-23T08:42:24;27.33;;;18.40;;
22937;SDS011;11634;42.734;23.298;2023-03-23T08:45:28;31.08;;;20.10;;
22937;SDS011;11634;42.734;23.298;2023-03-23T08:48:20;25.40;;;18.02;;
22937;SDS011;11634;42.734;23.298;2023-03-23T08:50:55;16.55;;;13.93;;
22937;SDS011;11634;42.734;23.298;2023-03-23T08:53:21;17.00;;;12.18;;
22937;SDS011;11634;42.734;23.298;2023-03-23T08:55:47;15.40;;;12.35;;
22937;SDS011;11634;42.734;23.298;2023-03-23T08:58:22;15.18;;;10.95;;
22937;SDS011;11634;42.734;23.298;2023-03-23T09:00:57;22.08;;;14.75;;
22937;SDS011;11634;42.734;23.298;2023-03-23T09:03:51;27.38;;;13.95;;
22937;SDS011;11634;42.734;23.298;2023-03-23T09:06:43;18.65;;;15.20;;
22937;SDS011;11634;42.734;23.298;2023-03-23T09:09:09;15.95;;;12.30;;
22937;SDS011;11634;42.734;23.298;2023-03-23T09:11:35;11.32;;;10.13;;
22937;SDS011;11634;42.734;23.298;2023-03-23T09:14:01;14.02;;;9.68;;
22937;SDS011;11634;42.734;23.298;2023-03-23T09:16:27;10.90;;;9.60;;
22937;SDS011;11634;42.734;23.298;2023-03-23T09:18:53;10.98;;;9.32;;
22937;SDS011;11634;42.734;23.298;2023-03-23T09:21:18;11.18;;;9.80;;
22937;SDS011;11634;42.734;23.298;2023-03-23T09:23:44;31.38;;;11.80;;
22937;SDS011;11634;42.734;23.298;2023-03-23T09:26:10;11.73;;;8.25;;
22937;SDS011;11634;42.734;23.298;2023-03-23T09:28:36;8.52;;;7.07;;
22937;SDS011;11634;42.734;23.298;2023-03-23T09:31:01;8.13;;;6.28;;
22937;SDS011;11634;42.734;23.298;2023-03-23T09:33:27;7.15;;;6.45;;
22937;SDS011;11634;42.734;23.298;2023-03-23T09:35:58;8.10;;;6.90;;
22937;SDS011;11634;42.734;23.298;2023-03-23T09:38:23;11.52;;;7.88;;
22937;SDS011;11634;42.734;23.298;2023-03-23T09:53:50;8.85;;;7.25;;
22937;SDS011;11634;42.734;23.298;2023-03-23T09:56:16;10.55;;;6.95;;
22937;SDS011;11634;42.734;23.298;2023-03-23T10:01:35;9.43;;;7.63;;
22937;SDS011;11634;42.734;23.298;2023-03-23T10:04:13;14.70;;;8.50;;
22937;SDS011;11634;42.734;23.298;2023-03-23T10:06:41;9.55;;;8.43;;
22937;SDS011;11634;42.734;23.298;2023-03-23T10:09:08;9.75;;;8.75;;
22937;SDS011;11634;42.734;23.298;2023-03-23T10:11:46;10.25;;;8.32;;
22937;SDS011;11634;42.734;23.298;2023-03-23T10:14:22;9.38;;;8.38;;
22937;SDS011;11634;42.734;23.298;2023-03-23T10:17:00;9.77;;;7.95;;
22937;SDS011;11634;42.734;23.298;2023-03-23T10:22:04;8.43;;;6.90;;
22937;SDS011;11634;42.734;23.298;2023-03-23T10:24:50;8.23;;;6.95;;
22937;SDS011;11634;42.734;23.298;2023-03-23T10:27:28;9.18;;;7.70;;
22937;SDS011;11634;42.734;23.298;2023-03-23T10:30:00;8.73;;;7.50;;
22937;SDS011;11634;42.734;23.298;2023-03-23T10:32:40;9.20;;;7.90;;
22937;SDS011;11634;42.734;23.298;2023-03-23T10:35:09;9.20;;;7.32;;
22937;SDS011;11634;42.734;23.298;2023-03-23T10:37:38;7.15;;;6.45;;
22937;SDS011;11634;42.734;23.298;2023-03-23T10:40:05;8.85;;;8.00;;
22937;SDS011;11634;42.734;23.298;2023-03-23T10:42:36;7.80;;;6.55;;
22937;SDS011;11634;42.734;23.298;2023-03-23T10:47:46;10.25;;;7.90;;
22937;SDS011;11634;42.734;23.298;2023-03-23T10:50:15;8.63;;;7.63;;
22937;SDS011;11634;42.734;23.298;2023-03-23T10:52:41;8.60;;;7.25;;
22937;SDS011;11634;42.734;23.298;2023-03-23T10:55:12;9.00;;;7.50;;
22937;SDS011;11634;42.734;23.298;2023-03-23T10:57:39;9.07;;;8.10;;
22937;SDS011;11634;42.734;23.298;2023-03-23T11:02:36;8.80;;;7.90;;
22937;SDS011;11634;42.734;23.298;2023-03-23T11:05:04;13.57;;;8.25;;
22937;SDS011;11634;42.734;23.298;2023-03-23T11:07:33;9.00;;;8.10;;
22937;SDS011;11634;42.734;23.298;2023-03-23T11:10:16;10.30;;;7.95;;
22937;SDS011;11634;42.734;23.298;2023-03-23T11:12:45;7.95;;;7.15;;
22937;SDS011;11634;42.734;23.298;2023-03-23T11:15:23;15.18;;;7.88;;
22937;SDS011;11634;42.734;23.298;2023-03-23T11:17:57;8.18;;;7.32;;
22937;SDS011;11634;42.734;23.298;2023-03-23T11:20:24;8.88;;;7.95;;
22937;SDS011;11634;42.734;23.298;2023-03-23T11:22:49;8.48;;;7.18;;
22937;SDS011;11634;42.734;23.298;2023-03-23T11:25:15;11.55;;;7.50;;
22937;SDS011;11634;42.734;23.298;2023-03-23T11:27:40;8.13;;;7.07;;
22937;SDS011;11634;42.734;23.298;2023-03-23T11:30:10;10.00;;;7.93;;
22937;SDS011;11634;42.734;23.298;2023-03-23T11:32:36;8.65;;;7.53;;
22937;SDS011;11634;42.734;23.298;2023-03-23T11:35:06;8.75;;;7.85;;
22937;SDS011;11634;42.734;23.298;2023-03-23T11:37:41;12.13;;;7.68;;
22937;SDS011;11634;42.734;23.298;2023-03-23T11:42:46;8.80;;;7.57;;
22937;SDS011;11634;42.734;23.298;2023-03-23T11:45:14;7.18;;;6.45;;
22937;SDS011;11634;42.734;23.298;2023-03-23T11:50:19;11.55;;;7.25;;
22937;SDS011;11634;42.734;23.298;2023-03-23T11:52:48;8.27;;;6.35;;
22937;SDS011;11634;42.734;23.298;2023-03-23T11:57:40;9.15;;;6.82;;
22937;SDS011;11634;42.734;23.298;2023-03-23T12:00:13;10.35;;;6.93;;
22937;SDS011;11634;42.734;23.298;2023-03-23T12:02:46;7.80;;;6.80;;
22937;SDS011;11634;42.734;23.298;2023-03-23T12:07:45;8.07;;;6.75;;
22937;SDS011;11634;42.734;23.298;2023-03-23T12:10:24;8.45;;;6.70;;
22937;SDS011;11634;42.734;23.298;2023-03-23T12:17:55;9.57;;;7.38;;
22937;SDS011;11634;42.734;23.298;2023-03-23T12:20:31;7.55;;;6.45;;
22937;SDS011;11634;42.734;23.298;2023-03-23T12:23:03;7.15;;;5.90;;
22937;SDS011;11634;42.734;23.298;2023-03-23T12:40:42;7.43;;;6.18;;
22937;SDS011;11634;42.734;23.298;2023-03-23T12:43:17;6.75;;;5.95;;
22937;SDS011;11634;42.734;23.298;2023-03-23T12:48:18;6.88;;;5.70;;
22937;SDS011;11634;42.734;23.298;2023-03-23T12:53:33;8.55;;;6.22;;
22937;SDS011;11634;42.734;23.298;2023-03-23T12:56:10;5.70;;;5.15;;
22937;SDS011;11634;42.734;23.298;2023-03-23T12:58:44;6.20;;;5.50;;
22937;SDS011;11634;42.734;23.298;2023-03-23T13:03:49;8.27;;;5.88;;
22937;SDS011;11634;42.734;23.298;2023-03-23T13:11:22;7.97;;;5.32;;
22937;SDS011;11634;42.734;23.298;2023-03-23T13:13:54;5.85;;;5.25;;
22937;SDS011;11634;42.734;23.298;2023-03-23T13:24:03;8.30;;;6.10;;
22937;SDS011;11634;42.734;23.298;2023-03-23T13:26:30;6.93;;;6.22;;
22937;SDS011;11634;42.734;23.298;2023-03-23T13:29:00;6.72;;;5.90;;
22937;SDS011;11634;42.734;23.298;2023-03-23T13:31:34;6.82;;;6.10;;
22937;SDS011;11634;42.734;23.298;2023-03-23T13:34:05;6.38;;;5.65;;
22937;SDS011;11634;42.734;23.298;2023-03-23T13:36:42;9.13;;;6.93;;
22937;SDS011;11634;42.734;23.298;2023-03-23T13:39:21;10.05;;;6.40;;
22937;SDS011;11634;42.734;23.298;2023-03-23T13:44:28;6.22;;;5.07;;
22937;SDS011;11634;42.734;23.298;2023-03-23T13:47:06;5.80;;;5.30;;
22937;SDS011;11634;42.734;23.298;2023-03-23T13:49:32;8.38;;;6.38;;
22937;SDS011;11634;42.734;23.298;2023-03-23T13:51:59;5.80;;;5.30;;
22937;SDS011;11634;42.734;23.298;2023-03-23T13:56:58;6.18;;;5.35;;
22937;SDS011;11634;42.734;23.298;2023-03-23T14:01:51;5.95;;;5.10;;
22937;SDS011;11634;42.734;23.298;2023-03-23T14:04:17;7.30;;;5.05;;
22937;SDS011;11634;42.734;23.298;2023-03-23T14:06:45;4.93;;;4.43;;
22937;SDS011;11634;42.734;23.298;2023-03-23T14:09:19;6.18;;;5.43;;
22937;SDS011;11634;42.734;23.298;2023-03-23T14:11:51;6.45;;;5.60;;
22937;SDS011;11634;42.734;23.298;2023-03-23T14:14:21;7.70;;;5.80;;
22937;SDS011;11634;42.734;23.298;2023-03-23T14:16:49;7.18;;;5.43;;
22937;SDS011;11634;42.734;23.298;2023-03-23T14:19:27;7.90;;;5.78;;
22937;SDS011;11634;42.734;23.298;2023-03-23T14:21:55;8.65;;;6.35;;
22937;SDS011;11634;42.734;23.298;2023-03-23T14:26:49;5.97;;;5.38;;
22937;SDS011;11634;42.734;23.298;2023-03-23T14:29:17;8.43;;;5.93;;
22937;SDS011;11634;42.734;23.298;2023-03-23T14:31:43;6.88;;;5.80;;
22937;SDS011;11634;42.734;23.298;2023-03-23T14:34:12;5.80;;;5.07;;
22937;SDS011;11634;42.734;23.298;2023-03-23T14:36:38;6.75;;;5.45;;
22937;SDS011;11634;42.734;23.298;2023-03-23T14:39:14;7.65;;;5.80;;
22937;SDS011;11634;42.734;23.298;2023-03-23T14:41:40;6.57;;;5.88;;
22937;SDS011;11634;42.734;23.298;2023-03-23T14:44:07;7.38;;;6.05;;
22937;SDS011;11634;42.734;23.298;2023-03-23T14:46:34;7.70;;;6.45;;
22937;SDS011;11634;42.734;23.298;2023-03-23T14:49:03;6.32;;;5.72;;
22937;SDS011;11634;42.734;23.298;2023-03-23T14:51:29;7.72;;;5.97;;
22937;SDS011;11634;42.734;23.298;2023-03-23T14:53:54;9.13;;;5.68;;
22937;SDS011;11634;42.734;23.298;2023-03-23T14:56:21;8.25;;;5.25;;
22937;SDS011;11634;42.734;23.298;2023-03-23T14:58:49;8.15;;;6.25;;
22937;SDS011;11634;42.734;23.298;2023-03-23T15:01:17;7.90;;;5.82;;
22937;SDS011;11634;42.734;23.298;2023-03-23T15:03:58;9.68;;;6.18;;
22937;SDS011;11634;42.734;23.298;2023-03-23T15:06:26;9.00;;;6.32;;
22937;SDS011;11634;42.734;23.298;2023-03-23T15:08:53;5.47;;;4.97;;
22937;SDS011;11634;42.734;23.298;2023-03-23T15:11:24;5.60;;;5.10;;
22937;SDS011;11634;42.734;23.298;2023-03-23T15:13:53;6.28;;;5.65;;
22937;SDS011;11634;42.734;23.298;2023-03-23T15:16:21;8.77;;;5.78;;
22937;SDS011;11634;42.734;23.298;2023-03-23T15:19:00;8.57;;;5.43;;
22937;SDS011;11634;42.734;23.298;2023-03-23T15:21:31;6.65;;;5.65;;
22937;SDS011;11634;42.734;23.298;2023-03-23T15:23:57;6.25;;;5.65;;
22937;SDS011;11634;42.734;23.298;2023-03-23T15:26:33;8.50;;;5.93;;
22937;SDS011;11634;42.734;23.298;2023-03-23T15:31:44;8.10;;;5.75;;
22937;SDS011;11634;42.734;23.298;2023-03-23T15:34:12;7.80;;;6.15;;
22937;SDS011;11634;42.734;23.298;2023-03-23T15:36:38;7.63;;;6.50;;
22937;SDS011;11634;42.734;23.298;2023-03-23T15:39:08;10.45;;;6.80;;
22937;SDS011;11634;42.734;23.298;2023-03-23T15:41:34;7.38;;;6.22;;
22937;SDS011;11634;42.734;23.298;2023-03-23T15:44:11;9.57;;;6.70;;
22937;SDS011;11634;42.734;23.298;2023-03-23T15:46:49;7.97;;;6.57;;
22937;SDS011;11634;42.734;23.298;2023-03-23T15:49:15;8.25;;;6.30;;
22937;SDS011;11634;42.734;23.298;2023-03-23T15:51:41;8.50;;;6.70;;
22937;SDS011;11634;42.734;23.298;2023-03-23T15:54:14;6.40;;;5.72;;
22937;SDS011;11634;42.734;23.298;2023-03-23T15:56:40;7.88;;;6.57;;
22937;SDS011;11634;42.734;23.298;2023-03-23T15:59:06;6.43;;;5.68;;
22937;SDS011;11634;42.734;23.298;2023-03-23T16:01:32;8.02;;;6.70;;
22937;SDS011;11634;42.734;23.298;2023-03-23T16:03:58;10.52;;;6.88;;
22937;SDS011;11634;42.734;23.298;2023-03-23T16:06:26;8.80;;;6.18;;
22937;SDS011;11634;42.734;23.298;2023-03-23T16:08:52;8.57;;;5.50;;
22937;SDS011;11634;42.734;23.298;2023-03-23T16:11:18;8.57;;;5.93;;
22937;SDS011;11634;42.734;23.298;2023-03-23T16:13:43;6.65;;;6.00;;
22937;SDS011;11634;42.734;23.298;2023-03-23T16:16:12;8.02;;;6.57;;
22937;SDS011;11634;42.734;23.298;2023-03-23T16:18:38;10.43;;;7.28;;
22937;SDS011;11634;42.734;23.298;2023-03-23T16:21:04;7.88;;;6.60;;
22937;SDS011;11634;42.734;23.298;2023-03-23T16:23:30;9.73;;;6.47;;
22937;SDS011;11634;42.734;23.298;2023-03-23T16:25:55;7.57;;;6.07;;
22937;SDS011;11634;42.734;23.298;2023-03-23T16:28:20;8.07;;;5.93;;
22937;SDS011;11634;42.734;23.298;2023-03-23T16:30:46;7.50;;;6.10;;